createdAt,value
2017-12-06T00:00:36.143Z,16.77
2017-12-06T00:03:03.726Z,19.57
2017-12-06T00:05:31.252Z,16.20
2017-12-06T00:07:58.745Z,20.50
2017-12-06T00:10:26.227Z,13.77
2017-12-06T00:12:54.494Z,20.63
2017-12-06T00:15:21.990Z,18.80
2017-12-06T00:17:49.469Z,22.77
2017-12-06T00:20:17.012Z,14.17
2017-12-06T00:22:45.248Z,20.20
2017-12-06T00:25:12.758Z,14.30
2017-12-06T00:27:40.243Z,14.97
2017-12-06T00:30:07.763Z,15.50
2017-12-06T00:32:35.999Z,17.63
2017-12-06T00:35:03.457Z,15.90
2017-12-06T00:37:30.929Z,15.57
2017-12-06T00:39:58.417Z,15.17
2017-12-06T00:42:25.913Z,14.47
2017-12-06T00:44:54.172Z,20.70
2017-12-06T00:47:22.381Z,14.97
2017-12-06T00:49:49.856Z,15.40
2017-12-06T00:52:18.059Z,17.63
2017-12-06T00:54:45.580Z,15.70
2017-12-06T00:57:13.868Z,17.70
2017-12-06T00:59:41.342Z,16.53
2017-12-06T01:02:08.882Z,15.17
2017-12-06T01:04:36.356Z,16.40
2017-12-06T01:07:03.828Z,17.93
2017-12-06T01:09:31.301Z,17.57
2017-12-06T01:11:58.807Z,22.83
2017-12-06T01:14:26.280Z,19.40
2017-12-06T01:16:54.556Z,15.70
2017-12-06T01:19:22.781Z,20.67
2017-12-06T01:21:50.305Z,20.70
2017-12-06T01:24:17.771Z,16.50
2017-12-06T01:26:46.013Z,15.10
2017-12-06T01:29:13.501Z,18.20
2017-12-06T01:31:41.839Z,18.90
2017-12-06T01:34:09.289Z,16.53
2017-12-06T01:36:36.735Z,17.17
2017-12-06T01:39:04.345Z,22.77
2017-12-06T01:41:32.633Z,20.20
2017-12-06T01:44:00.111Z,22.50
2017-12-06T01:46:27.558Z,16.57
2017-12-06T01:48:55.057Z,26.30
2017-12-06T01:51:23.293Z,19.50
2017-12-06T01:53:50.798Z,18.60
2017-12-06T01:56:18.238Z,20.57
2017-12-06T01:58:45.732Z,20.50
2017-12-06T02:01:13.976Z,21.40
2017-12-06T02:03:41.480Z,21.50
2017-12-06T02:06:08.953Z,15.63
2017-12-06T02:08:36.470Z,19.60
2017-12-06T02:11:03.943Z,15.40
2017-12-06T02:13:32.198Z,24.33
2017-12-06T02:15:59.690Z,19.67
2017-12-06T02:18:27.963Z,19.40
2017-12-06T02:20:56.200Z,23.60
2017-12-06T02:23:23.647Z,22.63
2017-12-06T02:25:51.148Z,21.60
2017-12-06T02:28:18.595Z,19.37
2017-12-06T02:30:46.045Z,22.17
2017-12-06T02:33:13.524Z,23.47
2017-12-06T02:35:41.027Z,20.87
2017-12-06T02:38:09.244Z,16.90
2017-12-06T02:40:36.750Z,16.50
2017-12-06T02:43:04.215Z,25.13
2017-12-06T02:45:31.674Z,26.93
2017-12-06T02:47:59.163Z,19.00
2017-12-06T02:50:27.416Z,24.60
2017-12-06T02:52:54.890Z,18.10
2017-12-06T02:55:22.416Z,27.07
2017-12-06T02:57:49.908Z,29.00
2017-12-06T03:00:17.350Z,23.60
2017-12-06T03:02:44.837Z,22.43
2017-12-06T03:05:12.550Z,25.10
2017-12-06T03:07:39.998Z,23.57
2017-12-06T03:10:07.474Z,26.40
2017-12-06T03:12:34.968Z,37.67
2017-12-06T03:15:02.442Z,25.60
2017-12-06T03:17:29.893Z,15.90
2017-12-06T03:19:57.378Z,24.60
2017-12-06T03:22:24.886Z,20.40
2017-12-06T03:24:52.385Z,23.53
2017-12-06T03:27:19.817Z,20.93
2017-12-06T03:29:47.316Z,26.47
2017-12-06T03:32:14.835Z,21.60
2017-12-06T03:34:42.382Z,24.67
2017-12-06T03:37:09.786Z,23.43
2017-12-06T03:39:37.288Z,22.50
2017-12-06T03:42:04.810Z,19.40
2017-12-06T03:44:32.276Z,20.73
2017-12-06T03:46:59.707Z,18.47
2017-12-06T03:49:27.216Z,19.07
2017-12-06T03:51:54.678Z,27.70
2017-12-06T03:54:22.148Z,23.43
2017-12-06T03:56:49.649Z,20.37
2017-12-06T03:59:17.907Z,20.53
2017-12-06T04:01:45.321Z,26.80
2017-12-06T04:04:12.820Z,17.50
2017-12-06T04:06:40.274Z,17.77
2017-12-06T04:09:07.733Z,18.40
2017-12-06T04:11:35.229Z,26.37
2017-12-06T04:14:03.467Z,25.60
2017-12-06T04:16:30.938Z,21.33
2017-12-06T04:18:58.420Z,17.27
2017-12-06T04:21:25.930Z,18.73
2017-12-06T04:23:53.440Z,21.70
2017-12-06T04:26:20.913Z,22.20
2017-12-06T04:28:48.417Z,20.67
2017-12-06T04:31:15.892Z,19.13
2017-12-06T04:33:43.344Z,18.73
2017-12-06T04:36:10.834Z,19.80
2017-12-06T04:38:38.293Z,21.37
2017-12-06T04:41:05.845Z,23.67
2017-12-06T04:43:33.325Z,23.27
2017-12-06T04:46:00.776Z,24.93
2017-12-06T04:48:28.230Z,22.23
2017-12-06T04:50:55.710Z,21.90
2017-12-06T04:53:23.184Z,27.07
2017-12-06T04:55:50.687Z,17.53
2017-12-06T04:58:18.162Z,17.23
2017-12-06T05:00:45.651Z,18.67
2017-12-06T05:03:13.155Z,17.90
2017-12-06T05:05:41.412Z,19.10
2017-12-06T05:08:08.875Z,22.87
2017-12-06T05:10:36.405Z,17.77
2017-12-06T05:13:03.915Z,21.53
2017-12-06T05:15:31.380Z,26.17
2017-12-06T05:17:58.810Z,18.60
2017-12-06T05:20:26.339Z,20.63
2017-12-06T05:22:53.789Z,20.77
2017-12-06T05:25:21.251Z,17.63
2017-12-06T05:27:48.836Z,30.30
2017-12-06T05:30:16.295Z,20.60
2017-12-06T05:32:43.797Z,18.33
2017-12-06T05:35:11.253Z,20.43
2017-12-06T05:37:38.771Z,21.43
2017-12-06T05:40:07.099Z,25.33
2017-12-06T05:42:34.595Z,20.80
2017-12-06T05:45:02.075Z,23.60
2017-12-06T05:47:29.566Z,23.83
2017-12-06T05:49:57.080Z,23.57
2017-12-06T05:52:24.577Z,24.60
2017-12-06T05:54:52.026Z,22.63
2017-12-06T05:57:19.486Z,19.23
2017-12-06T05:59:47.739Z,19.47
2017-12-06T06:02:15.209Z,25.93
2017-12-06T06:04:42.661Z,18.30
2017-12-06T06:07:10.144Z,29.40
2017-12-06T06:09:38.377Z,19.57
2017-12-06T06:12:05.870Z,20.63
2017-12-06T06:14:33.357Z,18.17
2017-12-06T06:17:01.615Z,16.37
2017-12-06T06:19:29.095Z,19.23
2017-12-06T06:21:57.308Z,17.10
2017-12-06T06:24:24.862Z,18.67
2017-12-06T06:26:52.380Z,21.87
2017-12-06T06:29:19.960Z,18.97
2017-12-06T06:31:48.184Z,18.07
2017-12-06T06:34:15.672Z,20.67
2017-12-06T06:36:43.163Z,19.93
2017-12-06T06:39:11.392Z,20.20
2017-12-06T06:41:38.891Z,20.33
2017-12-06T06:44:06.373Z,20.17
2017-12-06T06:46:33.866Z,14.43
2017-12-06T06:49:01.354Z,17.23
2017-12-06T06:51:28.816Z,18.20
2017-12-06T06:53:56.340Z,22.37
2017-12-06T06:56:24.573Z,16.73
2017-12-06T06:58:52.035Z,13.30
2017-12-06T07:01:19.552Z,14.77
2017-12-06T07:03:47.773Z,23.03
2017-12-06T07:06:15.267Z,16.97
2017-12-06T07:08:42.716Z,16.57
2017-12-06T07:11:10.224Z,16.40
2017-12-06T07:13:37.730Z,15.60
2017-12-06T07:16:05.175Z,15.27
2017-12-06T07:18:32.678Z,17.70
2017-12-06T07:21:00.165Z,17.83
2017-12-06T07:23:28.400Z,13.03
2017-12-06T07:25:55.902Z,15.23
2017-12-06T07:28:24.173Z,18.07
2017-12-06T07:30:51.840Z,13.10
2017-12-06T07:33:20.153Z,14.17
2017-12-06T07:35:47.572Z,13.33
2017-12-06T07:38:15.063Z,11.43
2017-12-06T07:40:42.604Z,14.30
2017-12-06T07:43:10.036Z,18.17
2017-12-06T07:45:37.546Z,13.80
2017-12-06T07:48:05.833Z,9.40
2017-12-06T07:50:34.151Z,12.37
2017-12-06T07:53:01.788Z,14.10
2017-12-06T07:55:29.273Z,18.00
2017-12-06T07:57:56.806Z,13.10
2017-12-06T08:00:24.269Z,21.07
2017-12-06T08:02:51.800Z,14.40
2017-12-06T08:05:19.254Z,14.50
2017-12-06T08:07:46.810Z,10.23
2017-12-06T08:10:14.302Z,14.43
2017-12-06T08:12:42.529Z,15.13
2017-12-06T08:15:10.009Z,13.93
2017-12-06T08:17:37.528Z,16.97
2017-12-06T08:20:05.071Z,16.63
2017-12-06T08:22:32.518Z,15.00
2017-12-06T08:24:59.964Z,18.33
2017-12-06T08:27:27.472Z,16.97
2017-12-06T08:29:55.827Z,13.17
2017-12-06T08:32:23.300Z,14.83
2017-12-06T08:34:50.806Z,16.50
2017-12-06T08:37:18.250Z,24.30
2017-12-06T08:39:46.491Z,18.70
2017-12-06T08:42:14.029Z,14.53
2017-12-06T08:44:41.499Z,14.13
2017-12-06T08:47:09.045Z,11.43
2017-12-06T08:49:36.503Z,15.90
2017-12-06T08:52:03.987Z,15.60
2017-12-06T08:54:31.470Z,14.43
2017-12-06T08:56:58.993Z,16.83
2017-12-06T08:59:26.480Z,9.60
2017-12-06T09:01:53.992Z,13.83
2017-12-06T09:04:22.233Z,11.03
2017-12-06T09:06:49.738Z,11.70
2017-12-06T09:09:17.212Z,15.73
2017-12-06T09:11:44.678Z,13.93
2017-12-06T09:14:12.130Z,13.37
2017-12-06T09:16:39.645Z,11.03
2017-12-06T09:19:07.151Z,11.57
2017-12-06T09:21:35.415Z,15.40
2017-12-06T09:24:03.683Z,12.00
2017-12-06T09:26:31.134Z,14.00
2017-12-06T09:28:58.629Z,12.03
2017-12-06T09:31:26.837Z,9.90
2017-12-06T09:33:54.291Z,21.83
2017-12-06T09:36:21.834Z,18.73
2017-12-06T09:38:49.263Z,12.00
2017-12-06T09:41:16.775Z,13.00
2017-12-06T09:43:44.258Z,14.60
2017-12-06T09:46:11.719Z,14.63
2017-12-06T09:48:39.208Z,9.13
2017-12-06T09:51:06.691Z,16.60
2017-12-06T09:53:34.211Z,10.17
2017-12-06T09:56:01.648Z,12.60
2017-12-06T09:58:29.143Z,13.57
2017-12-06T10:00:56.641Z,8.23
2017-12-06T10:03:24.090Z,7.90
2017-12-06T10:05:51.566Z,7.50
2017-12-06T10:08:19.060Z,11.63
2017-12-06T10:10:47.273Z,8.10
2017-12-06T10:13:14.736Z,7.90
2017-12-06T10:15:42.213Z,10.00
2017-12-06T10:18:09.720Z,8.33
2017-12-06T10:20:37.309Z,8.50
2017-12-06T10:23:04.714Z,7.00
2017-12-06T10:25:32.320Z,7.23
2017-12-06T10:27:59.756Z,8.53
2017-12-06T10:30:27.227Z,14.13
2017-12-06T10:32:55.459Z,14.83
2017-12-06T10:36:41.796Z,9.37
2017-12-06T10:39:09.300Z,23.43
2017-12-06T10:41:36.747Z,13.10
2017-12-06T10:44:04.231Z,14.37
2017-12-06T10:46:31.692Z,10.73
2017-12-06T10:48:59.150Z,12.63
2017-12-06T10:51:26.623Z,6.87
2017-12-06T10:53:54.119Z,9.47
2017-12-06T10:56:21.581Z,8.90
2017-12-06T10:58:49.012Z,9.53
2017-12-06T11:01:16.531Z,6.87
2017-12-06T11:03:44.050Z,6.67
2017-12-06T11:06:11.502Z,8.33
2017-12-06T11:08:38.986Z,7.53
2017-12-06T11:11:07.218Z,9.77
2017-12-06T11:13:34.736Z,13.10
2017-12-06T11:16:02.983Z,13.17
2017-12-06T11:18:30.426Z,6.37
2017-12-06T11:20:57.917Z,8.60
2017-12-06T11:23:25.434Z,7.53
2017-12-06T11:25:52.944Z,6.17
2017-12-06T11:28:20.541Z,12.57
2017-12-06T11:30:48.763Z,10.13
2017-12-06T11:33:16.231Z,9.43
2017-12-06T11:35:43.682Z,8.47
2017-12-06T11:38:11.153Z,6.30
2017-12-06T11:40:38.657Z,7.17
2017-12-06T11:43:06.879Z,6.13
2017-12-06T11:45:34.396Z,6.33
2017-12-06T11:48:02.685Z,8.27
2017-12-06T11:50:30.911Z,6.30
2017-12-06T11:52:58.397Z,7.37
2017-12-06T11:55:25.858Z,6.97
2017-12-06T11:57:53.329Z,10.33
2017-12-06T12:00:20.808Z,9.93
2017-12-06T12:02:48.315Z,6.20
2017-12-06T12:05:15.809Z,10.30
2017-12-06T12:07:43.309Z,11.30
2017-12-06T12:10:10.799Z,5.67
2017-12-06T12:12:38.368Z,8.90
2017-12-06T12:15:06.590Z,5.67
2017-12-06T12:17:34.077Z,7.53
2017-12-06T12:20:01.616Z,10.03
2017-12-06T12:22:29.035Z,7.10
2017-12-06T12:24:56.588Z,6.57
2017-12-06T12:27:24.801Z,6.40
2017-12-06T12:29:52.277Z,6.47
2017-12-06T12:32:19.759Z,6.43
2017-12-06T12:34:47.993Z,5.77
2017-12-06T12:37:15.449Z,6.80
2017-12-06T12:39:42.979Z,5.33
2017-12-06T12:42:10.432Z,9.97
2017-12-06T12:44:38.729Z,5.87
2017-12-06T12:47:06.289Z,9.00
2017-12-06T12:49:33.678Z,9.07
2017-12-06T12:52:01.235Z,6.23
2017-12-06T12:54:29.405Z,12.40
2017-12-06T12:56:56.878Z,13.30
2017-12-06T12:59:24.367Z,6.77
2017-12-06T13:01:51.966Z,7.20
2017-12-06T13:04:20.228Z,6.47
2017-12-06T13:06:47.702Z,4.47
2017-12-06T13:09:15.922Z,10.70
2017-12-06T13:11:43.396Z,6.00
2017-12-06T13:14:10.898Z,17.53
2017-12-06T13:16:38.344Z,6.90
2017-12-06T13:19:05.847Z,7.13
2017-12-06T13:21:33.312Z,7.27
2017-12-06T13:24:01.581Z,7.33
2017-12-06T13:26:28.990Z,7.50
2017-12-06T13:28:56.469Z,6.87
2017-12-06T13:31:23.958Z,6.30
2017-12-06T13:33:51.455Z,5.97
2017-12-06T13:36:18.899Z,7.57
2017-12-06T13:38:46.356Z,5.70
2017-12-06T13:41:14.629Z,4.77
2017-12-06T13:43:42.885Z,14.10
2017-12-06T13:46:10.337Z,6.37
2017-12-06T13:48:37.849Z,5.93
2017-12-06T13:51:06.105Z,5.83
2017-12-06T13:53:33.562Z,7.70
2017-12-06T13:56:01.107Z,9.20
2017-12-06T13:58:28.649Z,14.00
2017-12-06T14:00:56.106Z,7.20
2017-12-06T14:03:23.767Z,9.27
2017-12-06T14:05:51.216Z,6.60
2017-12-06T14:08:18.719Z,8.67
2017-12-06T14:10:46.167Z,8.13
2017-12-06T14:13:13.664Z,9.00
2017-12-06T14:15:41.165Z,8.93
2017-12-06T14:18:09.445Z,9.00
2017-12-06T14:20:37.718Z,17.83
2017-12-06T14:23:05.993Z,10.83
2017-12-06T14:25:34.244Z,8.63
2017-12-06T14:28:01.691Z,7.77
2017-12-06T14:30:29.152Z,12.17
2017-12-06T14:32:56.636Z,7.00
2017-12-06T14:35:24.123Z,9.67
2017-12-06T14:37:52.422Z,12.23
2017-12-06T14:40:20.654Z,11.47
2017-12-06T14:42:48.154Z,7.53
2017-12-06T14:45:16.375Z,6.23
2017-12-06T14:47:43.886Z,17.23
2017-12-06T14:50:11.339Z,6.53
2017-12-06T14:52:38.772Z,9.10
2017-12-06T14:55:06.321Z,9.80
2017-12-06T14:57:34.916Z,8.70
2017-12-06T15:00:02.815Z,9.57
2017-12-06T15:02:31.142Z,7.00
2017-12-06T15:04:58.634Z,10.03
2017-12-06T15:07:26.092Z,14.23
2017-12-06T15:09:54.437Z,9.40
2017-12-06T15:12:21.943Z,10.13
2017-12-06T15:14:49.514Z,8.53
2017-12-06T15:17:16.950Z,9.57
2017-12-06T15:19:44.543Z,8.37
2017-12-06T15:22:12.289Z,8.80
2017-12-06T15:24:39.985Z,7.83
2017-12-06T15:27:07.653Z,10.90
2017-12-06T15:29:35.073Z,8.90
2017-12-06T15:32:02.562Z,9.70
2017-12-06T15:34:30.047Z,8.97
2017-12-06T15:36:57.584Z,7.00
2017-12-06T15:39:25.111Z,9.50
2017-12-06T15:41:53.339Z,10.97
2017-12-06T15:44:20.856Z,12.23
2017-12-06T15:46:48.429Z,8.23
2017-12-06T15:49:16.029Z,11.37
2017-12-06T15:51:43.517Z,11.50
2017-12-06T15:54:11.005Z,9.10
2017-12-06T15:56:38.520Z,6.53
2017-12-06T15:59:05.950Z,9.27
2017-12-06T16:01:33.416Z,8.73
2017-12-06T16:04:00.896Z,8.33
2017-12-06T16:06:28.493Z,8.37
2017-12-06T16:08:55.958Z,8.20
2017-12-06T16:11:23.503Z,12.20
2017-12-06T16:13:50.948Z,9.00
2017-12-06T16:16:18.578Z,10.17
2017-12-06T16:18:46.848Z,7.63
2017-12-06T16:21:14.378Z,7.50
2017-12-06T16:23:41.925Z,9.67
2017-12-06T16:26:09.440Z,8.60
2017-12-06T16:28:37.676Z,8.67
2017-12-06T16:31:05.156Z,6.37
2017-12-06T16:33:32.646Z,7.10
2017-12-06T16:36:00.903Z,34.97
2017-12-06T16:38:28.619Z,22.50
2017-12-06T16:40:56.084Z,13.23
2017-12-06T16:43:23.555Z,17.87
2017-12-06T16:45:51.097Z,6.93
2017-12-06T16:48:18.604Z,6.00
2017-12-06T16:50:46.112Z,11.60
2017-12-06T16:53:13.559Z,9.80
2017-12-06T16:55:41.055Z,8.37
2017-12-06T16:58:08.513Z,8.50
2017-12-06T17:00:35.944Z,11.33
2017-12-06T17:03:03.478Z,6.60
2017-12-06T17:05:30.919Z,8.27
2017-12-06T17:07:58.472Z,7.07
2017-12-06T17:10:26.740Z,13.07
2017-12-06T17:12:55.109Z,11.87
2017-12-06T17:15:22.692Z,7.70
2017-12-06T17:17:50.175Z,10.47
2017-12-06T17:20:17.681Z,8.07
2017-12-06T17:22:45.201Z,9.07
2017-12-06T17:25:12.625Z,12.40
2017-12-06T17:27:40.918Z,10.40
2017-12-06T17:30:09.261Z,7.03
2017-12-06T17:32:36.752Z,13.43
2017-12-06T17:35:05.036Z,9.90
2017-12-06T17:37:33.261Z,12.37
2017-12-06T17:40:00.801Z,12.80
2017-12-06T17:42:28.339Z,8.63
2017-12-06T17:44:55.776Z,17.40
2017-12-06T17:47:23.318Z,12.10
2017-12-06T17:49:52.502Z,12.80
2017-12-06T17:52:20.819Z,10.80
2017-12-06T17:54:48.288Z,11.63
2017-12-06T17:57:15.787Z,13.53
2017-12-06T17:59:43.275Z,15.30
2017-12-06T18:02:10.748Z,8.13
2017-12-06T18:04:38.405Z,12.10
2017-12-06T18:07:06.690Z,13.90
2017-12-06T18:09:34.499Z,13.37
2017-12-06T18:12:01.937Z,13.67
2017-12-06T18:14:29.398Z,19.10
2017-12-06T18:16:57.006Z,11.80
2017-12-06T18:19:24.597Z,16.37
2017-12-06T18:21:52.067Z,14.40
2017-12-06T18:24:20.459Z,16.60
2017-12-06T18:26:47.893Z,10.70
2017-12-06T18:29:16.143Z,15.40
2017-12-06T18:31:43.682Z,14.80
2017-12-06T18:34:11.147Z,12.47
2017-12-06T18:36:38.617Z,21.80
2017-12-06T18:39:06.084Z,12.00
2017-12-06T18:41:33.622Z,8.43
2017-12-06T18:44:01.129Z,14.87
2017-12-06T18:46:28.599Z,15.33
2017-12-06T18:48:56.834Z,15.63
2017-12-06T18:51:24.352Z,12.70
2017-12-06T18:53:52.584Z,12.00
2017-12-06T18:56:20.019Z,10.60
2017-12-06T18:58:47.544Z,14.57
2017-12-06T19:01:15.057Z,13.37
2017-12-06T19:03:43.292Z,10.03
2017-12-06T19:06:10.850Z,9.40
2017-12-06T19:08:38.377Z,14.73
2017-12-06T19:11:05.822Z,12.83
2017-12-06T19:13:34.074Z,12.77
2017-12-06T19:16:02.325Z,9.53
2017-12-06T19:18:29.812Z,10.03
2017-12-06T19:20:58.062Z,10.33
2017-12-06T19:23:25.573Z,8.90
2017-12-06T19:25:53.068Z,12.50
2017-12-06T19:28:20.560Z,15.87
2017-12-06T19:30:48.035Z,10.53
2017-12-06T19:33:16.315Z,18.73
2017-12-06T19:35:43.788Z,15.50
2017-12-06T19:38:11.233Z,21.83
2017-12-06T19:40:38.917Z,12.50
2017-12-06T19:43:07.180Z,14.97
2017-12-06T19:45:34.719Z,17.60
2017-12-06T19:48:02.168Z,14.63
2017-12-06T19:50:29.709Z,13.30
2017-12-06T19:52:57.923Z,12.43
2017-12-06T19:55:25.423Z,16.13
2017-12-06T19:57:53.684Z,15.30
2017-12-06T20:00:21.225Z,12.77
2017-12-06T20:02:48.629Z,16.80
2017-12-06T20:05:16.898Z,14.73
2017-12-06T20:07:44.498Z,14.10
2017-12-06T20:10:11.907Z,15.27
2017-12-06T20:12:39.398Z,13.10
2017-12-06T20:15:07.848Z,16.47
2017-12-06T20:17:35.441Z,19.23
2017-12-06T20:20:02.894Z,15.60
2017-12-06T20:22:30.442Z,13.10
2017-12-06T20:24:57.934Z,21.53
2017-12-06T20:27:25.440Z,20.17
2017-12-06T20:29:52.924Z,18.97
2017-12-06T20:32:20.384Z,13.87
2017-12-06T20:34:47.866Z,17.00
2017-12-06T20:37:15.359Z,21.47
2017-12-06T20:39:43.646Z,20.90
2017-12-06T20:42:11.100Z,17.40
2017-12-06T20:44:38.605Z,18.70
2017-12-06T20:47:06.225Z,16.03
2017-12-06T20:49:33.629Z,16.90
2017-12-06T20:52:01.192Z,14.27
2017-12-06T20:54:28.647Z,11.90
2017-12-06T20:56:56.104Z,12.67
2017-12-06T20:59:23.659Z,14.73
2017-12-06T21:01:51.112Z,14.67
2017-12-06T21:04:19.373Z,12.27
2017-12-06T21:06:46.900Z,18.97
2017-12-06T21:09:14.425Z,16.47
2017-12-06T21:11:41.904Z,14.50
2017-12-06T21:14:09.401Z,14.90
2017-12-06T21:16:36.911Z,14.30
2017-12-06T21:19:04.394Z,17.30
2017-12-06T21:21:32.599Z,26.57
2017-12-06T21:24:00.088Z,13.63
2017-12-06T21:26:27.580Z,19.03
2017-12-06T21:28:55.161Z,12.73
2017-12-06T21:31:22.667Z,12.07
2017-12-06T21:33:50.164Z,14.13
2017-12-06T21:36:17.593Z,12.87
2017-12-06T21:38:45.113Z,11.33
2017-12-06T21:41:13.322Z,16.00
2017-12-06T21:43:40.896Z,13.70
2017-12-06T21:46:08.373Z,10.77
2017-12-06T21:48:35.844Z,11.50
2017-12-06T21:51:03.338Z,17.73
2017-12-06T21:53:31.342Z,11.10
2017-12-06T21:55:58.817Z,14.13
2017-12-06T21:58:26.288Z,14.37
2017-12-06T22:00:53.781Z,13.33
2017-12-06T22:03:21.243Z,8.00
2017-12-06T22:05:49.488Z,10.77
2017-12-06T22:08:16.956Z,11.40
2017-12-06T22:10:44.465Z,12.50
2017-12-06T22:13:12.663Z,11.77
2017-12-06T22:15:40.161Z,7.47
2017-12-06T22:18:07.673Z,6.90
2017-12-06T22:20:35.147Z,7.73
2017-12-06T22:23:02.636Z,6.80
2017-12-06T22:25:30.183Z,7.10
2017-12-06T22:27:57.712Z,11.37
2017-12-06T22:30:25.173Z,7.00
2017-12-06T22:32:52.679Z,7.73
2017-12-06T22:35:20.179Z,5.83
2017-12-06T22:37:47.663Z,10.10
2017-12-06T22:40:15.940Z,8.03
2017-12-06T22:42:44.163Z,14.33
2017-12-06T22:45:11.656Z,15.43
2017-12-06T22:47:39.135Z,7.07
2017-12-06T22:50:06.595Z,6.93
2017-12-06T22:52:34.105Z,5.53
2017-12-06T22:55:01.627Z,7.27
2017-12-06T22:57:29.101Z,6.33
2017-12-06T22:59:57.358Z,5.30
2017-12-06T23:02:24.828Z,5.33
2017-12-06T23:04:53.086Z,5.23
2017-12-06T23:07:20.562Z,5.67
2017-12-06T23:09:48.082Z,4.53
2017-12-06T23:12:15.572Z,4.80
2017-12-06T23:14:43.047Z,4.50
2017-12-06T23:17:10.538Z,5.40
2017-12-06T23:19:37.962Z,5.53
2017-12-06T23:22:05.412Z,5.00
2017-12-06T23:24:32.950Z,4.93
2017-12-06T23:27:00.446Z,4.20
2017-12-06T23:29:27.877Z,5.10
2017-12-06T23:31:55.328Z,3.43
2017-12-06T23:34:22.818Z,4.17
2017-12-06T23:36:50.276Z,3.90
2017-12-06T23:39:17.766Z,4.30
2017-12-06T23:41:45.256Z,4.07
2017-12-06T23:44:12.723Z,5.00
2017-12-06T23:46:40.977Z,5.27
2017-12-06T23:49:08.513Z,3.40
2017-12-06T23:51:35.991Z,3.73
2017-12-06T23:54:03.434Z,3.97
2017-12-06T23:56:30.951Z,4.67
2017-12-06T23:58:59.180Z,3.67
